x

West Tampa - 112 Nm Wnw Of Tampa, Fl (42036) Wave Buoy

5:50am - Sat 1st Nov 2014 All times are EDT. -4 hours from GMT.

  • Sig Wave height 7.5ft
  • Swell Direction
  • Peak Period 7s
  • Average Period 5s
  • Wind
    29mph, 34mph gusts
  • Sea Temp 79°f
  • Air Temp 64°f
  • Sea Pressure 1015.2mb
  • West Tampa  - 112 Nm Wnw Of Tampa, Fl
  • West Tampa  - 112 Nm Wnw Of Tampa, Fl

More Historic Weather Station data

Upgrade to MSW Pro to gain access to the past 30 days of data for over 8000 Wavebouys and Weather Stations around the globe.

Join Pro

Comparision Forecast

View Surf forecast
   
Sat 11/01 5:50am 7.5ft 7s 5s 29 34 mph 1015.2mb 79f 64f
4:50am 6ft 6s 5s 29 36 mph 1014.5mb 79f 66f
3:50am 6ft 6s 5s 29 36 mph 1014.1mb 79f 67f
2:50am 5ft 6s 4s 29 36 mph 1013.5mb 79f 70f
1:50am 5ft 6s 5s 16 22 mph 1013.7mb 79f 71f
12:50am 4ft 6s 4s 29 34 mph 1013.5mb 79f 71f
Fri 10/31 11:50pm 4.5ft 5s 4s 18 22 mph 1013.9mb 79f 72f
10:50pm 4.5ft 5s 4s 20 27 mph 1013.9mb 79f 72f
9:50pm 4ft 5s 4s 25 29 mph 1013.7mb 79f 72f
8:50pm 3.5ft 5s 4s 22 25 mph 1013.5mb 79f 72f
7:50pm 3.5ft 5s 4s 20 27 mph 1013.1mb 79f 71f
6:50pm 3.5ft 5s 4s 20 25 mph 1012.6mb 79f 71f
5:50pm 3.5ft 5s 4s 20 27 mph 1012.2mb 79f 70f
4:50pm 3.5ft 5s 4s 20 25 mph 1011.9mb 79f 70f
3:50pm 3.5ft 5s 4s 18 22 mph 1012mb 79f 69f
2:50pm 3.5ft 5s 4s 16 20 mph 1012.4mb 79f 69f
1:50pm 3.5ft 5s 4s 18 22 mph 1013mb 79f 69f
12:50pm 3.5ft 5s 4s 16 20 mph 1014mb 79f 69f
11:50am 3.5ft 5s 4s 18 22 mph 1014.5mb 79f 69f
10:50am 3ft 5s 4s 18 20 mph 1014.6mb 79f 69f
9:50am 3.5ft 5s 4s 16 20 mph 1014.4mb 79f 69f
8:50am 3.5ft 5s 4s 18 22 mph 1013.7mb 79f 69f
7:50am 3.5ft 5s 4s 18 22 mph 1013mb 79f 69f
6:50am 3.5ft 5s 4s 18 22 mph 1012.6mb 79f 69f
5:50am 2.5ft 4s 4s 18 22 mph 1012.5mb 80f 70f
4:50am 2.5ft 4s 4s 13 20 mph 1012.3mb 80f 71f
3:50am 2.5ft 4s 4s 16 20 mph 1012.4mb 80f 71f
2:50am 2.5ft 4s 3s 16 18 mph 1013mb 80f 72f
1:50am 2ft 3s 3s 16 20 mph 1013.2mb 80f 73f
12:50am 2ft 4s 4s 11 16 mph 1013.7mb 80f 73f
Thu 10/30 11:50pm 2ft 4s 3s 13 18 mph 1013.8mb 80f 73f
10:50pm 2.5ft 5s 4s 11 16 mph 1013.9mb 80f 73f
9:50pm 2ft 4s 4s 11 13 mph 1013.4mb 80f 73f
8:50pm 2.5ft 4s 4s 13 16 mph 1013.3mb 80f 73f
7:50pm 2.5ft 5s 4s 13 16 mph 1013mb 80f 73f
6:50pm 2ft 5s 4s 16 18 mph 1012.9mb 80f 73f
5:50pm 2.5ft 5s 4s 13 16 mph 1012.8mb 80f 74f
4:50pm 2.5ft 5s 4s 13 16 mph 1012.7mb 80f 74f
3:50pm 2.5ft 5s 4s 13 16 mph 1012.8mb 80f 74f
2:50pm 3ft 5s 4s 13 16 mph 1013.3mb 80f 74f
1:50pm 2.5ft 4s 4s 16 18 mph 1014mb 80f 74f
12:50pm 2ft 3s 3s 16 18 mph 1015mb 80f 75f
11:50am 1ft 5s 3s 16 18 mph 1015.3mb 80f 75f
10:50am 1ft 5s 4s 11 13 mph 1015.3mb 80f 78f
9:50am 1ft 5s 4s 9 11 mph 1015.3mb 80f 78f
8:50am 1.3ft 4s 5s 9
mph
1014.8mb 80f 78f
7:50am 1.3ft 5s 5s 4 7 mph 1014.7mb 80f 77f
6:50am 1.3ft 5s 4s 4
mph
1014.6mb 80f 77f
5:50am 1.3ft 5s 5s 2
mph
1014mb 80f 77f
4:50am 1.3ft 6s 5s 4
mph
1014.1mb 80f 77f
3:50am 1.3ft 6s 5s 2 4 mph 1014.5mb 80f 78f
2:50am 1.3ft 6s 5s  -  2 mph 1015mb 80f 78f
1:50am 1.3ft 6s 4s 2 4 mph 1015.6mb 79f 78f
12:50am 1.3ft 5s 4s 4
mph
1015.8mb 79f 78f
Wed 10/29 11:50pm 1.3ft 5s 4s 7 9 mph 1016.1mb 80f 78f
10:50pm 1.3ft 5s 4s 7
mph
1016.5mb 80f 78f
9:50pm 1.3ft 5s 5s 7 9 mph 1016.6mb 80f 78f
8:50pm 1.3ft 5s 5s 4 7 mph 1016.6mb 80f 78f
7:50pm 1.3ft 5s 5s 2 4 mph 1016.7mb 80f 78f
6:50pm 1ft 7s 5s 4 7 mph 1016.2mb 80f 78f
5:50pm 1ft 6s 5s 4 7 mph 1016.3mb 80f 78f
4:50pm 1ft 6s 5s 4 7 mph 1016.3mb 80f 78f
3:50pm 1ft 6s 5s 7
mph
1016.7mb 80f 78f
2:50pm 1ft 6s  -  4 7 mph 1017.4mb 80f 77f
1:50pm 1.3ft 6s 5s 4 7 mph 1018.3mb 81f 77f
12:50pm 1.3ft 6s 4s 2 4 mph 1019.1mb 81f 77f
11:50am 1.3ft 5s 5s 2 4 mph 1019.7mb 80f 78f
10:50am 1.3ft 5s 5s 2 4 mph 1019.7mb 80f 78f
9:50am 1.6ft 5s 5s 7 9 mph 1019.3mb 79f 77f
8:50am 1.6ft 5s 5s 4 7 mph 1018.9mb 79f 77f
7:50am 1.6ft 6s 5s 4 7 mph 1019mb 79f 76f
6:50am 1.6ft 6s 5s 2 4 mph 1018.8mb 79f 76f
5:50am 1.6ft 5s 5s  -  2 mph 1018.7mb 79f 76f
4:50am 1.3ft 5s 4s  -  2 mph 1018.7mb 79f 76f
3:50am 1.6ft 5s 4s 2 4 mph 1018.6mb 79f 76f
2:50am 1.6ft 6s 4s 7
mph
1018.9mb 79f 77f
1:50am 1.6ft 5s 4s 4 7 mph 1019.2mb 79f 77f
12:50am 1.6ft 4s 4s 2 4 mph 1019.6mb 79f 77f
Tue 10/28 11:50pm 1.6ft 5s 4s 2 4 mph 1019.8mb 79f 77f
10:50pm 1.6ft 5s 4s 2 4 mph 1020mb 79f 77f
9:50pm 1.6ft 5s 4s 7 11 mph 1019.8mb 79f 77f
8:50pm 1.6ft 4s 4s 7
mph
1019.7mb 79f 77f
7:50pm 1.6ft 5s 4s 7 9 mph 1019.3mb 80f 78f
6:50pm 1.3ft 5s 4s 9 11 mph 1019mb 80f 78f
5:50pm 1.3ft 3s 4s 7 9 mph 1018.9mb 80f 78f
4:50pm 1ft 3s 4s 7 9 mph 1018.9mb 80f 78f
3:50pm 1ft 3s 3s 4 7 mph 1019.2mb 80f 78f
2:50pm 1ft 3s 3s 4 7 mph 1019.7mb 80f 78f
1:50pm 1ft 3s 3s 7 9 mph 1020.5mb 80f 78f
12:50pm 1ft 3s 3s 9 11 mph 1021.2mb 79f 77f
11:50am 1ft 3s 3s 11 13 mph 1021.4mb 79f 77f